sensor_id;sensor_type;location;lat;lon;timestamp;P1;durP1;ratioP1;P2;durP2;ratioP2
50976;SDS011;36992;48.200;12.418;2023-07-24T00:01:28;5.65;;;2.60;;
50976;SDS011;36992;48.200;12.418;2023-07-24T00:03:54;5.63;;;3.33;;
50976;SDS011;36992;48.200;12.418;2023-07-24T00:06:23;7.63;;;2.90;;
50976;SDS011;36992;48.200;12.418;2023-07-24T00:08:49;6.80;;;3.00;;
50976;SDS011;36992;48.200;12.418;2023-07-24T00:11:16;6.32;;;3.40;;
50976;SDS011;36992;48.200;12.418;2023-07-24T00:13:43;6.55;;;2.42;;
50976;SDS011;36992;48.200;12.418;2023-07-24T00:16:10;5.63;;;2.72;;
50976;SDS011;36992;48.200;12.418;2023-07-24T00:18:37;6.45;;;3.10;;
50976;SDS011;36992;48.200;12.418;2023-07-24T00:21:03;5.13;;;2.40;;
50976;SDS011;36992;48.200;12.418;2023-07-24T00:23:31;5.80;;;3.22;;
50976;SDS011;36992;48.200;12.418;2023-07-24T00:25:58;5.38;;;2.83;;
50976;SDS011;36992;48.200;12.418;2023-07-24T00:28:24;6.10;;;2.95;;
50976;SDS011;36992;48.200;12.418;2023-07-24T00:30:51;5.93;;;2.88;;
50976;SDS011;36992;48.200;12.418;2023-07-24T00:33:17;5.40;;;2.90;;
50976;SDS011;36992;48.200;12.418;2023-07-24T00:35:44;5.00;;;2.78;;
50976;SDS011;36992;48.200;12.418;2023-07-24T00:38:10;6.10;;;2.80;;
50976;SDS011;36992;48.200;12.418;2023-07-24T00:40:38;5.90;;;2.38;;
50976;SDS011;36992;48.200;12.418;2023-07-24T00:43:04;5.55;;;2.78;;
50976;SDS011;36992;48.200;12.418;2023-07-24T00:45:31;5.30;;;3.05;;
50976;SDS011;36992;48.200;12.418;2023-07-24T00:47:58;5.75;;;3.17;;
50976;SDS011;36992;48.200;12.418;2023-07-24T00:50:25;6.93;;;3.70;;
50976;SDS011;36992;48.200;12.418;2023-07-24T00:52:53;8.25;;;4.35;;
50976;SDS011;36992;48.200;12.418;2023-07-24T00:55:20;6.18;;;2.90;;
50976;SDS011;36992;48.200;12.418;2023-07-24T00:57:48;5.50;;;2.85;;
50976;SDS011;36992;48.200;12.418;2023-07-24T01:00:15;7.22;;;2.95;;
50976;SDS011;36992;48.200;12.418;2023-07-24T01:02:42;5.45;;;3.10;;
50976;SDS011;36992;48.200;12.418;2023-07-24T01:05:09;7.93;;;3.55;;
50976;SDS011;36992;48.200;12.418;2023-07-24T01:07:38;7.03;;;3.47;;
50976;SDS011;36992;48.200;12.418;2023-07-24T01:10:05;7.53;;;4.13;;
50976;SDS011;36992;48.200;12.418;2023-07-24T01:12:34;6.70;;;3.80;;
50976;SDS011;36992;48.200;12.418;2023-07-24T01:15:06;6.43;;;3.97;;
50976;SDS011;36992;48.200;12.418;2023-07-24T01:17:37;7.80;;;3.80;;
50976;SDS011;36992;48.200;12.418;2023-07-24T01:20:08;6.85;;;3.65;;
50976;SDS011;36992;48.200;12.418;2023-07-24T01:22:38;5.80;;;3.30;;
50976;SDS011;36992;48.200;12.418;2023-07-24T01:25:10;7.00;;;3.60;;
50976;SDS011;36992;48.200;12.418;2023-07-24T01:27:45;5.97;;;3.08;;
50976;SDS011;36992;48.200;12.418;2023-07-24T01:30:13;8.57;;;3.60;;
50976;SDS011;36992;48.200;12.418;2023-07-24T01:32:41;6.70;;;3.00;;
50976;SDS011;36992;48.200;12.418;2023-07-24T01:35:08;5.53;;;2.55;;
50976;SDS011;36992;48.200;12.418;2023-07-24T01:37:35;6.60;;;3.08;;
50976;SDS011;36992;48.200;12.418;2023-07-24T01:40:05;6.32;;;3.22;;
50976;SDS011;36992;48.200;12.418;2023-07-24T01:42:33;6.32;;;3.25;;
50976;SDS011;36992;48.200;12.418;2023-07-24T01:45:02;6.75;;;4.15;;
50976;SDS011;36992;48.200;12.418;2023-07-24T01:47:29;6.70;;;3.33;;
50976;SDS011;36992;48.200;12.418;2023-07-24T01:49:56;13.25;;;4.68;;
50976;SDS011;36992;48.200;12.418;2023-07-24T01:52:22;7.75;;;3.72;;
50976;SDS011;36992;48.200;12.418;2023-07-24T01:54:49;6.40;;;3.35;;
50976;SDS011;36992;48.200;12.418;2023-07-24T01:57:16;13.10;;;4.80;;
50976;SDS011;36992;48.200;12.418;2023-07-24T01:59:42;6.38;;;3.03;;
50976;SDS011;36992;48.200;12.418;2023-07-24T02:02:11;5.78;;;3.10;;
50976;SDS011;36992;48.200;12.418;2023-07-24T02:04:37;7.63;;;3.53;;
50976;SDS011;36992;48.200;12.418;2023-07-24T02:07:04;8.15;;;3.55;;
50976;SDS011;36992;48.200;12.418;2023-07-24T02:09:31;8.93;;;3.50;;
50976;SDS011;36992;48.200;12.418;2023-07-24T02:11:57;5.78;;;2.90;;
50976;SDS011;36992;48.200;12.418;2023-07-24T02:14:23;5.82;;;2.78;;
50976;SDS011;36992;48.200;12.418;2023-07-24T02:16:51;6.72;;;2.75;;
50976;SDS011;36992;48.200;12.418;2023-07-24T02:19:19;5.35;;;3.38;;
50976;SDS011;36992;48.200;12.418;2023-07-24T02:21:46;5.90;;;3.20;;
50976;SDS011;36992;48.200;12.418;2023-07-24T02:24:12;6.32;;;3.33;;
50976;SDS011;36992;48.200;12.418;2023-07-24T02:26:39;6.88;;;3.40;;
50976;SDS011;36992;48.200;12.418;2023-07-24T02:29:05;6.82;;;3.17;;
50976;SDS011;36992;48.200;12.418;2023-07-24T02:31:32;8.38;;;2.95;;
50976;SDS011;36992;48.200;12.418;2023-07-24T02:33:58;5.63;;;3.00;;
50976;SDS011;36992;48.200;12.418;2023-07-24T02:36:26;8.82;;;3.40;;
50976;SDS011;36992;48.200;12.418;2023-07-24T02:38:52;5.20;;;2.67;;
50976;SDS011;36992;48.200;12.418;2023-07-24T02:41:19;6.05;;;3.00;;
50976;SDS011;36992;48.200;12.418;2023-07-24T02:43:45;5.85;;;2.72;;
50976;SDS011;36992;48.200;12.418;2023-07-24T02:46:12;5.10;;;3.03;;
50976;SDS011;36992;48.200;12.418;2023-07-24T02:48:38;6.00;;;3.20;;
50976;SDS011;36992;48.200;12.418;2023-07-24T02:51:05;5.07;;;2.85;;
50976;SDS011;36992;48.200;12.418;2023-07-24T02:53:33;5.97;;;2.97;;
50976;SDS011;36992;48.200;12.418;2023-07-24T02:56:00;6.50;;;3.10;;
50976;SDS011;36992;48.200;12.418;2023-07-24T02:58:27;4.63;;;2.42;;
50976;SDS011;36992;48.200;12.418;2023-07-24T03:00:53;5.78;;;2.70;;
50976;SDS011;36992;48.200;12.418;2023-07-24T03:03:22;5.85;;;3.67;;
50976;SDS011;36992;48.200;12.418;2023-07-24T03:05:48;4.82;;;2.55;;
50976;SDS011;36992;48.200;12.418;2023-07-24T03:08:14;5.60;;;2.92;;
50976;SDS011;36992;48.200;12.418;2023-07-24T03:10:42;7.10;;;2.83;;
50976;SDS011;36992;48.200;12.418;2023-07-24T03:13:09;5.15;;;2.85;;
50976;SDS011;36992;48.200;12.418;2023-07-24T03:15:35;4.53;;;2.63;;
50976;SDS011;36992;48.200;12.418;2023-07-24T03:18:02;5.15;;;2.58;;
50976;SDS011;36992;48.200;12.418;2023-07-24T03:20:28;4.82;;;2.92;;
50976;SDS011;36992;48.200;12.418;2023-07-24T03:22:55;5.38;;;2.88;;
50976;SDS011;36992;48.200;12.418;2023-07-24T03:25:22;5.78;;;3.03;;
50976;SDS011;36992;48.200;12.418;2023-07-24T03:27:50;7.22;;;2.92;;
50976;SDS011;36992;48.200;12.418;2023-07-24T03:30:16;6.18;;;2.85;;
50976;SDS011;36992;48.200;12.418;2023-07-24T03:32:43;5.82;;;3.22;;
50976;SDS011;36992;48.200;12.418;2023-07-24T03:35:09;5.90;;;2.60;;
50976;SDS011;36992;48.200;12.418;2023-07-24T03:37:36;5.03;;;2.47;;
50976;SDS011;36992;48.200;12.418;2023-07-24T03:40:02;5.50;;;2.90;;
50976;SDS011;36992;48.200;12.418;2023-07-24T03:42:30;8.35;;;3.15;;
50976;SDS011;36992;48.200;12.418;2023-07-24T03:44:58;5.55;;;2.67;;
50976;SDS011;36992;48.200;12.418;2023-07-24T03:47:25;5.90;;;3.00;;
50976;SDS011;36992;48.200;12.418;2023-07-24T03:49:51;7.47;;;3.10;;
50976;SDS011;36992;48.200;12.418;2023-07-24T03:52:18;6.68;;;3.75;;
50976;SDS011;36992;48.200;12.418;2023-07-24T03:54:44;7.30;;;3.42;;
50976;SDS011;36992;48.200;12.418;2023-07-24T03:57:11;8.52;;;4.72;;
50976;SDS011;36992;48.200;12.418;2023-07-24T03:59:38;13.70;;;5.40;;
50976;SDS011;36992;48.200;12.418;2023-07-24T04:02:05;8.63;;;4.05;;
50976;SDS011;36992;48.200;12.418;2023-07-24T04:04:32;10.07;;;4.25;;
50976;SDS011;36992;48.200;12.418;2023-07-24T04:06:59;8.75;;;3.80;;
50976;SDS011;36992;48.200;12.418;2023-07-24T04:09:25;9.50;;;4.70;;
50976;SDS011;36992;48.200;12.418;2023-07-24T04:11:52;7.22;;;3.97;;
50976;SDS011;36992;48.200;12.418;2023-07-24T04:14:18;6.68;;;3.92;;
50976;SDS011;36992;48.200;12.418;2023-07-24T04:16:45;10.85;;;4.88;;
50976;SDS011;36992;48.200;12.418;2023-07-24T04:19:13;8.10;;;4.13;;
50976;SDS011;36992;48.200;12.418;2023-07-24T04:21:40;11.00;;;4.47;;
50976;SDS011;36992;48.200;12.418;2023-07-24T04:24:08;8.95;;;4.13;;
50976;SDS011;36992;48.200;12.418;2023-07-24T04:26:34;11.52;;;4.47;;
50976;SDS011;36992;48.200;12.418;2023-07-24T04:29:01;9.73;;;4.68;;
50976;SDS011;36992;48.200;12.418;2023-07-24T04:31:27;9.38;;;4.07;;
50976;SDS011;36992;48.200;12.418;2023-07-24T04:33:54;7.90;;;4.13;;
50976;SDS011;36992;48.200;12.418;2023-07-24T04:36:22;5.30;;;2.53;;
50976;SDS011;36992;48.200;12.418;2023-07-24T04:38:48;7.78;;;3.80;;
50976;SDS011;36992;48.200;12.418;2023-07-24T04:41:15;6.75;;;3.60;;
50976;SDS011;36992;48.200;12.418;2023-07-24T04:43:42;9.52;;;3.42;;
50976;SDS011;36992;48.200;12.418;2023-07-24T04:46:08;5.60;;;3.10;;
50976;SDS011;36992;48.200;12.418;2023-07-24T04:48:35;6.47;;;4.00;;
50976;SDS011;36992;48.200;12.418;2023-07-24T04:51:01;5.75;;;3.03;;
50976;SDS011;36992;48.200;12.418;2023-07-24T04:53:29;5.28;;;3.00;;
50976;SDS011;36992;48.200;12.418;2023-07-24T04:55:55;6.03;;;3.13;;
50976;SDS011;36992;48.200;12.418;2023-07-24T04:58:22;6.38;;;3.35;;
50976;SDS011;36992;48.200;12.418;2023-07-24T05:00:49;5.35;;;2.83;;
50976;SDS011;36992;48.200;12.418;2023-07-24T05:03:15;5.68;;;2.90;;
50976;SDS011;36992;48.200;12.418;2023-07-24T05:05:42;5.20;;;2.70;;
50976;SDS011;36992;48.200;12.418;2023-07-24T05:08:09;7.00;;;3.65;;
50976;SDS011;36992;48.200;12.418;2023-07-24T05:10:36;7.55;;;3.50;;
50976;SDS011;36992;48.200;12.418;2023-07-24T05:13:03;4.93;;;2.72;;
50976;SDS011;36992;48.200;12.418;2023-07-24T05:15:30;5.05;;;2.60;;
50976;SDS011;36992;48.200;12.418;2023-07-24T05:17:56;5.22;;;2.60;;
50976;SDS011;36992;48.200;12.418;2023-07-24T05:20:23;6.20;;;3.05;;
50976;SDS011;36992;48.200;12.418;2023-07-24T05:22:49;4.90;;;2.47;;
50976;SDS011;36992;48.200;12.418;2023-07-24T05:25:16;6.53;;;3.17;;
50976;SDS011;36992;48.200;12.418;2023-07-24T05:27:43;7.18;;;3.20;;
50976;SDS011;36992;48.200;12.418;2023-07-24T05:30:10;7.22;;;3.90;;
50976;SDS011;36992;48.200;12.418;2023-07-24T05:32:36;7.18;;;3.30;;
50976;SDS011;36992;48.200;12.418;2023-07-24T05:35:03;6.00;;;3.30;;
50976;SDS011;36992;48.200;12.418;2023-07-24T05:37:30;5.70;;;2.80;;
50976;SDS011;36992;48.200;12.418;2023-07-24T05:39:57;6.80;;;3.22;;
50976;SDS011;36992;48.200;12.418;2023-07-24T05:42:23;7.47;;;3.45;;
50976;SDS011;36992;48.200;12.418;2023-07-24T05:44:51;6.20;;;3.00;;
50976;SDS011;36992;48.200;12.418;2023-07-24T05:47:18;5.70;;;3.53;;
50976;SDS011;36992;48.200;12.418;2023-07-24T05:49:44;6.35;;;3.38;;
50976;SDS011;36992;48.200;12.418;2023-07-24T05:52:11;8.25;;;4.63;;
50976;SDS011;36992;48.200;12.418;2023-07-24T05:54:37;8.40;;;4.10;;
50976;SDS011;36992;48.200;12.418;2023-07-24T05:57:04;6.35;;;3.85;;
50976;SDS011;36992;48.200;12.418;2023-07-24T05:59:31;8.40;;;4.10;;
50976;SDS011;36992;48.200;12.418;2023-07-24T06:01:59;8.02;;;3.35;;
50976;SDS011;36992;48.200;12.418;2023-07-24T06:04:25;5.80;;;3.17;;
50976;SDS011;36992;48.200;12.418;2023-07-24T06:06:52;5.95;;;3.08;;
50976;SDS011;36992;48.200;12.418;2023-07-24T06:09:18;4.68;;;2.78;;
50976;SDS011;36992;48.200;12.418;2023-07-24T06:11:45;6.43;;;2.80;;
50976;SDS011;36992;48.200;12.418;2023-07-24T06:14:11;6.05;;;3.42;;
50976;SDS011;36992;48.200;12.418;2023-07-24T06:16:38;6.72;;;3.67;;
50976;SDS011;36992;48.200;12.418;2023-07-24T06:19:06;7.50;;;3.65;;
50976;SDS011;36992;48.200;12.418;2023-07-24T06:21:32;5.32;;;2.92;;
50976;SDS011;36992;48.200;12.418;2023-07-24T06:23:59;5.80;;;3.08;;
50976;SDS011;36992;48.200;12.418;2023-07-24T06:26:25;7.00;;;3.33;;
50976;SDS011;36992;48.200;12.418;2023-07-24T06:28:52;5.18;;;2.53;;
50976;SDS011;36992;48.200;12.418;2023-07-24T06:31:18;5.07;;;2.78;;
50976;SDS011;36992;48.200;12.418;2023-07-24T06:33:45;5.55;;;2.88;;
50976;SDS011;36992;48.200;12.418;2023-07-24T06:36:12;5.32;;;2.90;;
50976;SDS011;36992;48.200;12.418;2023-07-24T06:38:39;6.50;;;3.05;;
50976;SDS011;36992;48.200;12.418;2023-07-24T06:41:07;6.65;;;3.10;;
50976;SDS011;36992;48.200;12.418;2023-07-24T06:43:34;6.55;;;3.20;;
50976;SDS011;36992;48.200;12.418;2023-07-24T06:46:00;5.82;;;3.03;;
50976;SDS011;36992;48.200;12.418;2023-07-24T06:48:27;5.60;;;2.90;;
50976;SDS011;36992;48.200;12.418;2023-07-24T06:50:53;6.53;;;3.20;;
50976;SDS011;36992;48.200;12.418;2023-07-24T06:53:21;6.03;;;2.83;;
50976;SDS011;36992;48.200;12.418;2023-07-24T06:55:47;5.53;;;2.78;;
50976;SDS011;36992;48.200;12.418;2023-07-24T06:58:14;6.18;;;2.85;;
50976;SDS011;36992;48.200;12.418;2023-07-24T07:00:40;5.38;;;2.42;;
50976;SDS011;36992;48.200;12.418;2023-07-24T07:03:07;7.75;;;3.42;;
50976;SDS011;36992;48.200;12.418;2023-07-24T07:05:33;6.50;;;3.10;;
50976;SDS011;36992;48.200;12.418;2023-07-24T07:08:00;12.82;;;3.75;;
50976;SDS011;36992;48.200;12.418;2023-07-24T07:10:28;5.20;;;2.83;;
50976;SDS011;36992;48.200;12.418;2023-07-24T07:12:56;6.03;;;3.03;;
50976;SDS011;36992;48.200;12.418;2023-07-24T07:15:22;6.75;;;2.80;;
50976;SDS011;36992;48.200;12.418;2023-07-24T07:17:49;9.13;;;3.58;;
50976;SDS011;36992;48.200;12.418;2023-07-24T07:20:16;5.85;;;3.17;;
50976;SDS011;36992;48.200;12.418;2023-07-24T07:22:42;5.53;;;2.30;;
50976;SDS011;36992;48.200;12.418;2023-07-24T07:25:09;5.82;;;2.88;;
50976;SDS011;36992;48.200;12.418;2023-07-24T07:27:36;6.32;;;3.47;;
50976;SDS011;36992;48.200;12.418;2023-07-24T07:30:03;6.50;;;3.63;;
50976;SDS011;36992;48.200;12.418;2023-07-24T07:32:31;5.68;;;2.90;;
50976;SDS011;36992;48.200;12.418;2023-07-24T07:34:58;6.88;;;3.08;;
50976;SDS011;36992;48.200;12.418;2023-07-24T07:37:24;5.65;;;2.80;;
50976;SDS011;36992;48.200;12.418;2023-07-24T07:39:51;5.22;;;2.35;;
50976;SDS011;36992;48.200;12.418;2023-07-24T07:42:17;4.70;;;2.28;;
50976;SDS011;36992;48.200;12.418;2023-07-24T07:44:45;5.03;;;2.80;;
50976;SDS011;36992;48.200;12.418;2023-07-24T07:47:12;7.18;;;3.05;;
50976;SDS011;36992;48.200;12.418;2023-07-24T07:49:38;5.05;;;2.78;;
50976;SDS011;36992;48.200;12.418;2023-07-24T07:52:06;7.22;;;3.00;;
50976;SDS011;36992;48.200;12.418;2023-07-24T07:54:33;4.45;;;2.55;;
50976;SDS011;36992;48.200;12.418;2023-07-24T07:57:00;6.20;;;2.60;;
50976;SDS011;36992;48.200;12.418;2023-07-24T07:59:26;6.03;;;2.90;;
50976;SDS011;36992;48.200;12.418;2023-07-24T08:01:54;6.18;;;2.95;;
50976;SDS011;36992;48.200;12.418;2023-07-24T08:04:21;7.18;;;3.17;;
50976;SDS011;36992;48.200;12.418;2023-07-24T08:06:47;5.38;;;2.75;;
50976;SDS011;36992;48.200;12.418;2023-07-24T08:09:14;4.93;;;2.60;;
50976;SDS011;36992;48.200;12.418;2023-07-24T08:11:40;5.20;;;2.92;;
50976;SDS011;36992;48.200;12.418;2023-07-24T08:14:07;5.43;;;2.50;;
50976;SDS011;36992;48.200;12.418;2023-07-24T08:16:33;4.80;;;2.97;;
50976;SDS011;36992;48.200;12.418;2023-07-24T08:19:01;5.45;;;3.17;;
50976;SDS011;36992;48.200;12.418;2023-07-24T08:21:28;6.57;;;3.50;;
50976;SDS011;36992;48.200;12.418;2023-07-24T08:23:54;6.43;;;3.45;;
50976;SDS011;36992;48.200;12.418;2023-07-24T08:26:22;5.65;;;3.30;;
50976;SDS011;36992;48.200;12.418;2023-07-24T08:28:49;9.07;;;3.85;;
50976;SDS011;36992;48.200;12.418;2023-07-24T08:31:16;6.40;;;4.05;;
50976;SDS011;36992;48.200;12.418;2023-07-24T08:33:42;7.97;;;4.15;;
50976;SDS011;36992;48.200;12.418;2023-07-24T08:36:10;8.80;;;4.10;;
50976;SDS011;36992;48.200;12.418;2023-07-24T08:38:37;7.32;;;4.07;;
50976;SDS011;36992;48.200;12.418;2023-07-24T08:41:06;7.72;;;4.38;;
50976;SDS011;36992;48.200;12.418;2023-07-24T08:43:34;6.53;;;4.13;;
50976;SDS011;36992;48.200;12.418;2023-07-24T08:46:02;10.35;;;4.32;;
50976;SDS011;36992;48.200;12.418;2023-07-24T08:48:30;7.43;;;3.20;;
50976;SDS011;36992;48.200;12.418;2023-07-24T08:51:00;9.50;;;3.95;;
50976;SDS011;36992;48.200;12.418;2023-07-24T08:53:29;6.38;;;3.72;;
50976;SDS011;36992;48.200;12.418;2023-07-24T08:55:57;6.05;;;3.47;;
50976;SDS011;36992;48.200;12.418;2023-07-24T08:58:25;4.80;;;2.75;;
50976;SDS011;36992;48.200;12.418;2023-07-24T09:00:52;7.00;;;3.53;;
50976;SDS011;36992;48.200;12.418;2023-07-24T09:03:18;6.55;;;3.35;;
50976;SDS011;36992;48.200;12.418;2023-07-24T09:05:45;10.80;;;3.20;;
50976;SDS011;36992;48.200;12.418;2023-07-24T09:08:12;6.22;;;3.50;;
50976;SDS011;36992;48.200;12.418;2023-07-24T09:10:40;7.55;;;3.33;;
50976;SDS011;36992;48.200;12.418;2023-07-24T09:13:07;6.70;;;3.55;;
50976;SDS011;36992;48.200;12.418;2023-07-24T09:15:40;7.78;;;2.80;;
50976;SDS011;36992;48.200;12.418;2023-07-24T09:18:07;9.43;;;3.35;;
50976;SDS011;36992;48.200;12.418;2023-07-24T09:20:37;6.65;;;3.13;;
50976;SDS011;36992;48.200;12.418;2023-07-24T09:23:05;6.80;;;3.88;;
50976;SDS011;36992;48.200;12.418;2023-07-24T09:25:32;7.65;;;3.80;;
50976;SDS011;36992;48.200;12.418;2023-07-24T09:28:08;6.30;;;3.35;;
50976;SDS011;36992;48.200;12.418;2023-07-24T09:33:01;5.95;;;2.72;;
50976;SDS011;36992;48.200;12.418;2023-07-24T09:35:28;6.07;;;2.60;;
50976;SDS011;36992;48.200;12.418;2023-07-24T09:38:01;6.03;;;2.80;;
50976;SDS011;36992;48.200;12.418;2023-07-24T09:40:36;5.72;;;3.03;;
50976;SDS011;36992;48.200;12.418;2023-07-24T09:43:14;4.78;;;2.63;;
50976;SDS011;36992;48.200;12.418;2023-07-24T09:45:42;5.60;;;2.15;;
50976;SDS011;36992;48.200;12.418;2023-07-24T09:48:09;4.53;;;2.50;;
50976;SDS011;36992;48.200;12.418;2023-07-24T09:50:40;5.15;;;2.03;;
50976;SDS011;36992;48.200;12.418;2023-07-24T09:53:07;7.32;;;2.67;;
50976;SDS011;36992;48.200;12.418;2023-07-24T09:55:40;4.57;;;2.40;;
50976;SDS011;36992;48.200;12.418;2023-07-24T09:58:14;4.50;;;2.20;;
50976;SDS011;36992;48.200;12.418;2023-07-24T10:00:42;4.25;;;2.05;;
50976;SDS011;36992;48.200;12.418;2023-07-24T10:03:09;3.45;;;1.90;;
50976;SDS011;36992;48.200;12.418;2023-07-24T10:05:36;4.05;;;1.88;;
50976;SDS011;36992;48.200;12.418;2023-07-24T10:08:03;6.40;;;2.10;;
50976;SDS011;36992;48.200;12.418;2023-07-24T10:10:31;2.92;;;1.65;;
50976;SDS011;36992;48.200;12.418;2023-07-24T10:12:58;4.20;;;2.08;;
50976;SDS011;36992;48.200;12.418;2023-07-24T10:15:26;4.80;;;2.35;;
50976;SDS011;36992;48.200;12.418;2023-07-24T10:18:00;5.35;;;2.78;;
50976;SDS011;36992;48.200;12.418;2023-07-24T10:20:32;5.53;;;2.75;;
50976;SDS011;36992;48.200;12.418;2023-07-24T10:23:00;4.40;;;2.08;;
50976;SDS011;36992;48.200;12.418;2023-07-24T10:25:28;4.78;;;2.67;;
50976;SDS011;36992;48.200;12.418;2023-07-24T10:28:00;5.82;;;2.03;;
50976;SDS011;36992;48.200;12.418;2023-07-24T10:30:29;3.50;;;1.90;;
50976;SDS011;36992;48.200;12.418;2023-07-24T10:33:02;4.07;;;2.20;;
50976;SDS011;36992;48.200;12.418;2023-07-24T10:35:36;4.00;;;2.08;;
50976;SDS011;36992;48.200;12.418;2023-07-24T10:38:03;4.00;;;2.33;;
50976;SDS011;36992;48.200;12.418;2023-07-24T10:40:29;7.60;;;2.22;;
50976;SDS011;36992;48.200;12.418;2023-07-24T10:43:00;5.80;;;2.65;;
50976;SDS011;36992;48.200;12.418;2023-07-24T10:45:37;4.78;;;1.92;;
50976;SDS011;36992;48.200;12.418;2023-07-24T10:48:06;5.85;;;2.05;;
50976;SDS011;36992;48.200;12.418;2023-07-24T10:50:36;3.80;;;1.80;;
50976;SDS011;36992;48.200;12.418;2023-07-24T10:53:03;4.45;;;2.03;;
50976;SDS011;36992;48.200;12.418;2023-07-24T10:55:30;3.00;;;1.40;;
50976;SDS011;36992;48.200;12.418;2023-07-24T10:57:56;3.83;;;2.20;;
50976;SDS011;36992;48.200;12.418;2023-07-24T11:00:23;4.13;;;1.40;;
50976;SDS011;36992;48.200;12.418;2023-07-24T11:02:54;5.10;;;1.65;;
50976;SDS011;36992;48.200;12.418;2023-07-24T11:05:21;3.85;;;1.95;;
50976;SDS011;36992;48.200;12.418;2023-07-24T11:07:48;7.70;;;2.83;;
50976;SDS011;36992;48.200;12.418;2023-07-24T11:10:15;4.82;;;2.40;;
50976;SDS011;36992;48.200;12.418;2023-07-24T11:12:42;4.75;;;2.45;;
50976;SDS011;36992;48.200;12.418;2023-07-24T11:15:09;6.28;;;2.38;;
50976;SDS011;36992;48.200;12.418;2023-07-24T11:17:37;3.70;;;1.95;;
50976;SDS011;36992;48.200;12.418;2023-07-24T11:20:08;3.70;;;1.92;;
50976;SDS011;36992;48.200;12.418;2023-07-24T11:22:35;5.78;;;1.90;;
50976;SDS011;36992;48.200;12.418;2023-07-24T11:25:04;4.72;;;2.20;;
50976;SDS011;36992;48.200;12.418;2023-07-24T11:27:31;3.90;;;2.35;;
50976;SDS011;36992;48.200;12.418;2023-07-24T11:29:58;4.13;;;2.42;;
50976;SDS011;36992;48.200;12.418;2023-07-24T11:32:25;5.68;;;2.70;;
50976;SDS011;36992;48.200;12.418;2023-07-24T11:34:52;5.00;;;2.90;;
50976;SDS011;36992;48.200;12.418;2023-07-24T11:37:20;4.43;;;2.28;;
50976;SDS011;36992;48.200;12.418;2023-07-24T11:39:56;5.40;;;3.03;;
50976;SDS011;36992;48.200;12.418;2023-07-24T11:42:24;6.43;;;2.50;;
50976;SDS011;36992;48.200;12.418;2023-07-24T11:44:52;4.60;;;2.70;;
50976;SDS011;36992;48.200;12.418;2023-07-24T11:47:18;4.88;;;2.53;;
50976;SDS011;36992;48.200;12.418;2023-07-24T11:49:55;4.53;;;2.25;;
50976;SDS011;36992;48.200;12.418;2023-07-24T11:52:23;9.48;;;2.60;;
50976;SDS011;36992;48.200;12.418;2023-07-24T11:54:56;7.13;;;2.80;;
50976;SDS011;36992;48.200;12.418;2023-07-24T11:57:26;9.40;;;3.15;;
50976;SDS011;36992;48.200;12.418;2023-07-24T11:59:53;4.00;;;2.28;;
50976;SDS011;36992;48.200;12.418;2023-07-24T12:02:21;3.95;;;2.58;;
50976;SDS011;36992;48.200;12.418;2023-07-24T12:04:53;5.15;;;2.90;;
50976;SDS011;36992;48.200;12.418;2023-07-24T12:07:21;14.35;;;2.83;;
50976;SDS011;36992;48.200;12.418;2023-07-24T12:09:54;4.88;;;2.50;;
50976;SDS011;36992;48.200;12.418;2023-07-24T12:12:21;5.75;;;2.25;;
50976;SDS011;36992;48.200;12.418;2023-07-24T12:14:47;6.05;;;3.17;;
50976;SDS011;36992;48.200;12.418;2023-07-24T12:17:17;5.03;;;2.65;;
50976;SDS011;36992;48.200;12.418;2023-07-24T12:19:44;4.85;;;2.92;;
50976;SDS011;36992;48.200;12.418;2023-07-24T12:22:12;7.00;;;2.75;;
50976;SDS011;36992;48.200;12.418;2023-07-24T12:24:40;4.82;;;2.70;;
50976;SDS011;36992;48.200;12.418;2023-07-24T12:27:06;3.78;;;2.08;;
50976;SDS011;36992;48.200;12.418;2023-07-24T12:29:33;4.40;;;2.25;;
50976;SDS011;36992;48.200;12.418;2023-07-24T12:31:59;5.32;;;2.78;;
50976;SDS011;36992;48.200;12.418;2023-07-24T12:34:26;3.88;;;2.28;;
50976;SDS011;36992;48.200;12.418;2023-07-24T12:36:52;5.70;;;2.47;;
50976;SDS011;36992;48.200;12.418;2023-07-24T12:39:19;6.03;;;2.55;;
50976;SDS011;36992;48.200;12.418;2023-07-24T12:41:47;4.90;;;2.42;;
50976;SDS011;36992;48.200;12.418;2023-07-24T12:44:14;4.63;;;2.53;;
50976;SDS011;36992;48.200;12.418;2023-07-24T12:46:40;4.78;;;1.73;;
50976;SDS011;36992;48.200;12.418;2023-07-24T12:49:07;4.05;;;2.10;;
50976;SDS011;36992;48.200;12.418;2023-07-24T12:51:33;3.72;;;2.10;;
50976;SDS011;36992;48.200;12.418;2023-07-24T12:54:00;3.95;;;2.42;;
50976;SDS011;36992;48.200;12.418;2023-07-24T12:56:27;4.10;;;2.20;;
50976;SDS011;36992;48.200;12.418;2023-07-24T12:58:54;3.72;;;2.38;;
50976;SDS011;36992;48.200;12.418;2023-07-24T13:01:21;4.70;;;2.70;;
50976;SDS011;36992;48.200;12.418;2023-07-24T13:03:49;5.07;;;2.67;;
50976;SDS011;36992;48.200;12.418;2023-07-24T13:06:15;7.88;;;3.20;;
50976;SDS011;36992;48.200;12.418;2023-07-24T13:08:42;4.70;;;2.85;;
50976;SDS011;36992;48.200;12.418;2023-07-24T13:11:08;5.40;;;3.10;;
50976;SDS011;36992;48.200;12.418;2023-07-24T13:13:35;5.25;;;2.65;;
50976;SDS011;36992;48.200;12.418;2023-07-24T13:16:03;6.68;;;2.25;;
50976;SDS011;36992;48.200;12.418;2023-07-24T13:18:30;4.20;;;2.08;;
50976;SDS011;36992;48.200;12.418;2023-07-24T13:20:56;3.30;;;1.60;;
50976;SDS011;36992;48.200;12.418;2023-07-24T13:23:23;8.02;;;2.67;;
50976;SDS011;36992;48.200;12.418;2023-07-24T13:25:51;6.45;;;2.75;;
50976;SDS011;36992;48.200;12.418;2023-07-24T13:28:18;5.22;;;1.80;;
50976;SDS011;36992;48.200;12.418;2023-07-24T13:30:45;4.35;;;1.80;;
50976;SDS011;36992;48.200;12.418;2023-07-24T13:33:13;8.73;;;2.70;;
50976;SDS011;36992;48.200;12.418;2023-07-24T13:35:40;5.88;;;2.40;;
50976;SDS011;36992;48.200;12.418;2023-07-24T13:38:07;4.22;;;1.92;;
50976;SDS011;36992;48.200;12.418;2023-07-24T13:40:34;7.45;;;1.42;;
50976;SDS011;36992;48.200;12.418;2023-07-24T13:43:00;4.82;;;2.17;;
50976;SDS011;36992;48.200;12.418;2023-07-24T13:45:27;6.30;;;1.70;;
50976;SDS011;36992;48.200;12.418;2023-07-24T13:47:54;5.82;;;2.45;;
50976;SDS011;36992;48.200;12.418;2023-07-24T13:50:22;4.22;;;2.20;;
50976;SDS011;36992;48.200;12.418;2023-07-24T13:52:48;5.78;;;2.10;;
50976;SDS011;36992;48.200;12.418;2023-07-24T13:55:15;4.22;;;2.30;;
50976;SDS011;36992;48.200;12.418;2023-07-24T13:57:41;5.32;;;2.38;;
50976;SDS011;36992;48.200;12.418;2023-07-24T14:00:08;4.53;;;2.22;;
50976;SDS011;36992;48.200;12.418;2023-07-24T14:02:35;5.63;;;2.42;;
50976;SDS011;36992;48.200;12.418;2023-07-24T14:05:02;4.00;;;2.28;;
50976;SDS011;36992;48.200;12.418;2023-07-24T14:07:30;5.95;;;2.40;;
50976;SDS011;36992;48.200;12.418;2023-07-24T14:09:57;3.92;;;2.05;;
50976;SDS011;36992;48.200;12.418;2023-07-24T14:12:23;5.13;;;2.08;;
50976;SDS011;36992;48.200;12.418;2023-07-24T14:14:49;3.50;;;1.88;;
50976;SDS011;36992;48.200;12.418;2023-07-24T14:17:16;4.30;;;2.10;;
50976;SDS011;36992;48.200;12.418;2023-07-24T14:19:44;3.85;;;1.73;;
50976;SDS011;36992;48.200;12.418;2023-07-24T14:22:10;4.00;;;1.67;;
50976;SDS011;36992;48.200;12.418;2023-07-24T14:24:38;3.45;;;2.05;;
50976;SDS011;36992;48.200;12.418;2023-07-24T14:27:05;4.70;;;1.90;;
50976;SDS011;36992;48.200;12.418;2023-07-24T14:29:31;5.43;;;2.33;;
50976;SDS011;36992;48.200;12.418;2023-07-24T14:31:58;5.53;;;2.00;;
50976;SDS011;36992;48.200;12.418;2023-07-24T14:34:24;3.60;;;1.33;;
50976;SDS011;36992;48.200;12.418;2023-07-24T14:36:51;3.53;;;1.73;;